createdAt,value
2023-02-17T00:02:01.444Z,1.54
2023-02-17T00:04:32.853Z,1.46
2023-02-17T00:07:02.941Z,1.95
2023-02-17T00:09:33.043Z,2.48
2023-02-17T00:12:02.877Z,2.82
2023-02-17T00:14:32.738Z,2.80
2023-02-17T00:17:02.610Z,3.08
2023-02-17T00:19:32.400Z,2.89
2023-02-17T00:22:03.127Z,2.97
2023-02-17T00:24:34.646Z,3.22
2023-02-17T00:27:04.610Z,3.49
2023-02-17T00:29:35.036Z,3.53
2023-02-17T00:32:06.368Z,3.55
2023-02-17T00:34:36.224Z,3.62
2023-02-17T00:37:06.621Z,3.75
2023-02-17T00:39:36.403Z,4.11
2023-02-17T00:42:06.720Z,4.07
2023-02-17T00:44:36.663Z,3.92
2023-02-17T00:47:06.530Z,3.92
2023-02-17T00:49:36.392Z,3.98
2023-02-17T00:52:06.911Z,3.98
2023-02-17T00:54:36.707Z,3.86
2023-02-17T00:57:06.596Z,4.05
2023-02-17T00:59:36.858Z,4.24
2023-02-17T01:02:08.394Z,3.95
2023-02-17T01:04:38.625Z,4.02
2023-02-17T01:07:08.658Z,3.93
2023-02-17T01:09:38.452Z,3.93
2023-02-17T01:12:07.974Z,3.84
2023-02-17T01:14:37.765Z,4.02
2023-02-17T01:17:07.291Z,3.97
2023-02-17T01:19:37.104Z,3.76
2023-02-17T01:22:07.008Z,3.94
2023-02-17T01:24:36.812Z,4.23
2023-02-17T01:27:07.159Z,4.14
2023-02-17T01:29:37.050Z,3.80
2023-02-17T01:32:06.978Z,4.12
2023-02-17T01:34:38.240Z,4.15
2023-02-17T01:37:08.708Z,3.90
2023-02-17T01:39:38.611Z,4.35
2023-02-17T01:42:09.919Z,4.39
2023-02-17T01:44:42.477Z,4.21
2023-02-17T01:47:13.784Z,4.15
2023-02-17T01:49:43.677Z,4.42
2023-02-17T01:52:23.851Z,4.29
2023-02-17T01:54:59.396Z,4.18
2023-02-17T01:57:32.449Z,4.09
2023-02-17T02:00:03.269Z,4.16
2023-02-17T02:02:34.987Z,4.29
2023-02-17T02:05:05.552Z,4.38
2023-02-17T02:07:38.954Z,4.49
2023-02-17T02:10:13.089Z,4.28
2023-02-17T02:12:44.010Z,4.37
2023-02-17T02:15:17.380Z,4.33
2023-02-17T02:17:55.894Z,4.27
2023-02-17T02:20:55.245Z,4.12
2023-02-17T02:23:46.260Z,4.08
2023-02-17T02:26:33.703Z,4.20
2023-02-17T02:29:30.255Z,4.00
2023-02-17T02:32:22.808Z,4.25
2023-02-17T02:35:07.336Z,4.04
2023-02-17T02:37:42.761Z,4.26
2023-02-17T02:40:15.586Z,4.26
2023-02-17T02:42:46.994Z,4.31
2023-02-17T02:45:19.398Z,4.32
2023-02-17T02:47:56.939Z,4.03
2023-02-17T02:50:37.673Z,4.11
2023-02-17T02:53:16.829Z,3.95
2023-02-17T02:56:26.425Z,3.78
2023-02-17T02:59:11.051Z,3.78
2023-02-17T03:01:52.939Z,3.78
2023-02-17T03:04:30.571Z,3.95
2023-02-17T03:07:19.781Z,3.84
2023-02-17T03:09:58.783Z,3.89
2023-02-17T03:12:29.564Z,3.96
2023-02-17T03:15:05.099Z,3.81
2023-02-17T03:17:35.292Z,3.77
2023-02-17T03:20:08.333Z,3.50
2023-02-17T03:22:41.316Z,3.50
2023-02-17T03:25:10.826Z,3.41
2023-02-17T03:27:40.770Z,3.32
2023-02-17T03:30:11.264Z,3.50
2023-02-17T03:32:41.890Z,3.66
2023-02-17T03:35:12.160Z,3.81
2023-02-17T03:37:42.500Z,3.97
2023-02-17T03:40:12.952Z,4.04
2023-02-17T03:42:42.688Z,3.99
2023-02-17T03:45:14.063Z,3.73
2023-02-17T03:47:43.845Z,3.52
2023-02-17T03:50:13.665Z,3.36
2023-02-17T03:52:43.454Z,3.37
2023-02-17T03:55:13.248Z,3.46
2023-02-17T03:57:43.045Z,3.36
2023-02-17T04:00:13.505Z,3.60
2023-02-17T04:02:44.285Z,3.27
2023-02-17T04:05:13.159Z,3.22
2023-02-17T04:07:43.085Z,3.03
2023-02-17T04:10:13.116Z,3.38
2023-02-17T04:12:43.002Z,3.06
2023-02-17T04:15:12.743Z,3.03
2023-02-17T04:17:42.601Z,2.96
2023-02-17T04:20:12.826Z,3.20
2023-02-17T04:22:42.433Z,3.15
2023-02-17T04:25:11.951Z,3.52
2023-02-17T04:27:41.802Z,3.27
2023-02-17T04:30:12.589Z,3.46
2023-02-17T04:32:42.411Z,3.26
2023-02-17T04:35:12.200Z,3.29
2023-02-17T04:37:42.070Z,3.03
2023-02-17T04:40:12.415Z,3.31
2023-02-17T04:42:42.080Z,3.28
2023-02-17T04:45:12.426Z,3.09
2023-02-17T04:47:42.277Z,3.06
2023-02-17T04:50:12.512Z,2.80
2023-02-17T04:52:42.146Z,2.55
2023-02-17T04:55:12.103Z,2.75
2023-02-17T04:57:41.945Z,2.33
2023-02-17T05:00:12.501Z,2.33
2023-02-17T05:02:42.293Z,2.37
2023-02-17T05:05:13.982Z,2.57
2023-02-17T05:07:44.750Z,2.29
2023-02-17T05:10:15.913Z,2.28
2023-02-17T05:12:45.870Z,2.19
2023-02-17T05:15:15.653Z,2.21
2023-02-17T05:17:45.543Z,2.13
2023-02-17T05:20:15.205Z,2.18
2023-02-17T05:22:45.058Z,2.20
2023-02-17T05:25:14.597Z,2.50
2023-02-17T05:27:44.436Z,2.84
2023-02-17T05:30:14.882Z,3.42
2023-02-17T05:32:45.101Z,3.73
2023-02-17T05:35:14.984Z,4.02
2023-02-17T05:37:44.814Z,3.90
2023-02-17T05:40:14.838Z,4.29
2023-02-17T05:42:44.829Z,4.17
2023-02-17T05:45:14.422Z,4.36
2023-02-17T05:47:44.396Z,4.49
2023-02-17T05:50:13.945Z,4.76
2023-02-17T05:52:44.035Z,4.95
2023-02-17T05:55:13.664Z,5.06
2023-02-17T05:57:43.443Z,5.07
2023-02-17T06:00:13.705Z,5.17
2023-02-17T06:02:43.301Z,5.08
2023-02-17T06:05:12.930Z,5.32
2023-02-17T06:07:43.184Z,5.32
2023-02-17T06:10:13.197Z,5.31
2023-02-17T06:12:43.050Z,5.25
2023-02-17T06:15:13.195Z,5.29
2023-02-17T06:17:42.981Z,5.18
2023-02-17T06:20:13.336Z,5.09
2023-02-17T06:22:44.177Z,5.01
2023-02-17T06:25:14.369Z,5.07
2023-02-17T06:27:44.309Z,5.12
2023-02-17T06:30:15.011Z,5.18
2023-02-17T06:32:46.458Z,5.09
2023-02-17T06:35:16.505Z,4.84
2023-02-17T06:37:46.385Z,5.05
2023-02-17T06:40:16.557Z,5.05
2023-02-17T06:42:46.737Z,5.02
2023-02-17T06:45:17.118Z,5.07
2023-02-17T06:47:47.239Z,5.15
2023-02-17T06:50:17.084Z,5.18
2023-02-17T06:52:46.938Z,5.19
2023-02-17T06:55:16.540Z,5.17
2023-02-17T06:57:46.337Z,5.20
2023-02-17T07:00:16.188Z,5.25
2023-02-17T07:02:46.142Z,5.30
2023-02-17T07:05:16.140Z,5.16
2023-02-17T07:07:46.271Z,5.32
2023-02-17T07:10:16.170Z,5.22
2023-02-17T07:12:45.977Z,5.34
2023-02-17T07:15:15.591Z,5.44
2023-02-17T07:17:45.403Z,5.48
2023-02-17T07:20:16.977Z,5.59
2023-02-17T07:22:46.806Z,5.53
2023-02-17T07:25:16.417Z,5.69
2023-02-17T07:27:46.210Z,5.76
2023-02-17T07:30:16.052Z,5.74
2023-02-17T07:32:46.292Z,5.72
2023-02-17T07:35:15.785Z,5.81
2023-02-17T07:37:45.622Z,5.93
2023-02-17T07:40:15.321Z,5.88
2023-02-17T07:42:45.173Z,5.96
2023-02-17T07:45:15.683Z,6.03
2023-02-17T07:47:45.821Z,6.11
2023-02-17T07:50:15.753Z,6.10
2023-02-17T07:52:45.593Z,6.20
2023-02-17T07:55:15.136Z,6.27
2023-02-17T07:57:44.970Z,6.35
2023-02-17T08:00:15.250Z,6.39
2023-02-17T08:02:45.976Z,6.24
2023-02-17T08:05:15.743Z,6.24
2023-02-17T08:07:45.603Z,6.39
2023-02-17T08:10:32.772Z,6.47
2023-02-17T08:13:20.447Z,6.48
2023-02-17T08:15:50.299Z,6.60
2023-02-17T08:18:19.857Z,6.50
2023-02-17T08:20:50.454Z,6.57
2023-02-17T08:23:22.014Z,6.57
2023-02-17T08:25:51.813Z,6.56
2023-02-17T08:28:21.688Z,6.71
2023-02-17T08:30:51.878Z,6.77
2023-02-17T08:33:21.683Z,6.72
2023-02-17T08:35:51.780Z,6.86
2023-02-17T08:38:21.267Z,6.90
2023-02-17T08:40:51.169Z,6.86
2023-02-17T08:43:20.664Z,6.94
2023-02-17T08:45:50.714Z,7.05
2023-02-17T08:48:20.519Z,7.01
2023-02-17T08:50:50.325Z,7.16
2023-02-17T08:53:20.137Z,7.11
2023-02-17T08:55:50.082Z,7.13
2023-02-17T08:58:19.675Z,7.16
2023-02-17T09:00:49.495Z,7.27
2023-02-17T09:03:19.521Z,7.32
2023-02-17T09:05:50.605Z,7.25
2023-02-17T09:08:20.879Z,7.20
2023-02-17T09:10:51.155Z,7.39
2023-02-17T09:13:20.974Z,7.44
2023-02-17T09:15:52.545Z,7.35
2023-02-17T09:18:23.021Z,7.40
2023-02-17T09:20:53.265Z,7.40
2023-02-17T09:23:22.963Z,7.40
2023-02-17T09:25:54.303Z,7.46
2023-02-17T09:28:24.107Z,7.48
2023-02-17T09:30:54.090Z,7.47
2023-02-17T09:33:25.235Z,7.53
2023-02-17T09:35:55.316Z,7.60
2023-02-17T09:38:25.592Z,7.61
2023-02-17T09:40:56.997Z,7.62
2023-02-17T09:43:30.334Z,7.59
2023-02-17T09:46:02.967Z,7.63
2023-02-17T09:48:35.602Z,7.61
2023-02-17T09:51:24.325Z,7.64
2023-02-17T09:53:57.194Z,7.68
2023-02-17T09:56:36.548Z,7.70
2023-02-17T09:59:24.594Z,7.69
2023-02-17T10:01:56.423Z,7.53
2023-02-17T10:04:29.705Z,7.77
2023-02-17T10:07:14.491Z,7.72
2023-02-17T10:09:50.452Z,7.81
2023-02-17T10:12:23.326Z,7.76
2023-02-17T10:14:58.931Z,7.95
2023-02-17T10:17:34.660Z,8.00
2023-02-17T10:20:25.181Z,8.08
2023-02-17T10:22:58.166Z,8.07
2023-02-17T10:25:56.820Z,8.03
2023-02-17T10:28:41.779Z,8.11
2023-02-17T10:31:20.076Z,8.22
2023-02-17T10:33:59.015Z,8.15
2023-02-17T10:37:04.945Z,8.19
2023-02-17T10:39:50.143Z,8.09
2023-02-17T10:42:23.188Z,8.09
2023-02-17T10:44:55.341Z,8.19
2023-02-17T10:47:24.955Z,8.26
2023-02-17T10:49:56.755Z,8.29
2023-02-17T10:52:32.687Z,8.32
2023-02-17T10:55:20.982Z,8.49
2023-02-17T10:57:39.604Z,8.49
2023-02-17T11:00:11.399Z,8.42
2023-02-17T11:02:46.905Z,8.42
2023-02-17T11:05:28.735Z,8.33
2023-02-17T11:08:07.404Z,8.33
2023-02-17T11:10:40.567Z,8.39
2023-02-17T11:13:22.102Z,8.37
2023-02-17T11:15:52.168Z,8.29
2023-02-17T11:18:30.789Z,8.24
2023-02-17T11:21:09.733Z,8.23
2023-02-17T11:23:51.700Z,8.26
2023-02-17T11:26:27.504Z,8.24
2023-02-17T11:29:13.651Z,8.41
2023-02-17T11:31:44.350Z,8.38
2023-02-17T11:34:19.232Z,8.47
2023-02-17T11:36:52.238Z,8.46
2023-02-17T11:39:23.253Z,8.52
2023-02-17T11:41:53.067Z,8.55
2023-02-17T11:44:29.388Z,8.70
2023-02-17T11:47:14.224Z,8.70
2023-02-17T11:50:04.778Z,8.77
2023-02-17T11:52:40.777Z,8.80
2023-02-17T11:55:28.575Z,9.13
2023-02-17T11:58:01.466Z,9.13
2023-02-17T12:00:34.250Z,9.18
2023-02-17T12:03:12.874Z,9.31
2023-02-17T12:06:00.047Z,9.31
2023-02-17T12:08:58.952Z,9.42
2023-02-17T12:11:51.015Z,9.44
2023-02-17T12:14:46.296Z,9.44
2023-02-17T12:17:21.381Z,9.46
2023-02-17T12:20:10.309Z,9.41
2023-02-17T12:22:51.970Z,9.47
2023-02-17T12:25:30.921Z,9.45
2023-02-17T12:28:32.142Z,9.49
2023-02-17T12:31:11.505Z,9.53
2023-02-17T12:33:59.316Z,9.44
2023-02-17T12:36:35.170Z,9.40
2023-02-17T12:39:25.960Z,9.43
2023-02-17T12:41:58.496Z,9.23
2023-02-17T12:44:31.350Z,9.26
2023-02-17T12:47:16.374Z,9.21
2023-02-17T12:49:58.245Z,9.18
2023-02-17T12:52:31.096Z,9.06
2023-02-17T12:55:12.987Z,9.09
2023-02-17T12:57:58.676Z,9.02
2023-02-17T13:00:37.278Z,9.34
2023-02-17T13:03:07.611Z,9.18
2023-02-17T13:05:40.396Z,9.17
2023-02-17T13:08:13.206Z,9.17
2023-02-17T13:10:43.244Z,9.18
2023-02-17T13:13:15.499Z,9.12
2023-02-17T13:15:47.663Z,9.09
2023-02-17T13:18:31.688Z,8.95
2023-02-17T13:21:20.443Z,9.05
2023-02-17T13:24:17.151Z,9.03
2023-02-17T13:26:46.946Z,8.96
2023-02-17T13:29:22.490Z,8.90
2023-02-17T13:31:55.753Z,8.98
2023-02-17T13:34:43.478Z,9.01
2023-02-17T13:37:28.277Z,9.13
2023-02-17T13:39:58.110Z,9.06
2023-02-17T13:42:34.238Z,9.00
2023-02-17T13:45:15.930Z,9.00
2023-02-17T13:47:48.575Z,8.98
2023-02-17T13:50:36.362Z,9.08
2023-02-17T13:53:24.725Z,9.01
2023-02-17T13:56:00.317Z,9.00
2023-02-17T13:58:38.711Z,8.90
2023-02-17T14:01:11.874Z,8.83
2023-02-17T14:03:44.720Z,8.70
2023-02-17T14:06:23.427Z,8.71
2023-02-17T14:08:54.252Z,8.49
2023-02-17T14:11:27.216Z,8.44
2023-02-17T14:13:58.764Z,8.41
2023-02-17T14:16:37.068Z,8.29
2023-02-17T14:19:18.952Z,8.26
2023-02-17T14:22:04.224Z,8.26
2023-02-17T14:24:36.947Z,8.26
2023-02-17T14:27:13.364Z,8.24
2023-02-17T14:29:45.712Z,8.23
2023-02-17T14:32:36.263Z,8.22
2023-02-17T14:35:18.337Z,8.23
2023-02-17T14:37:48.644Z,8.24
2023-02-17T14:40:21.368Z,8.33
2023-02-17T14:42:52.173Z,8.43
2023-02-17T14:45:22.755Z,8.47
2023-02-17T14:47:52.320Z,8.47
2023-02-17T14:50:21.792Z,8.44
2023-02-17T14:52:52.435Z,8.60
2023-02-17T14:55:39.780Z,8.63
2023-02-17T14:58:12.594Z,8.64
2023-02-17T15:00:42.399Z,8.65
2023-02-17T15:03:11.996Z,8.65
2023-02-17T15:05:42.266Z,8.65
2023-02-17T15:08:17.524Z,8.86
2023-02-17T15:10:48.010Z,8.84
2023-02-17T15:13:20.775Z,8.91
2023-02-17T15:15:50.833Z,8.95
2023-02-17T15:18:22.031Z,9.06
2023-02-17T15:20:53.915Z,9.06
2023-02-17T15:23:26.381Z,9.11
2023-02-17T15:25:57.326Z,9.10
2023-02-17T15:28:27.144Z,9.07
2023-02-17T15:30:57.684Z,9.07
2023-02-17T15:33:27.939Z,9.08
2023-02-17T15:35:58.037Z,9.14
2023-02-17T15:38:27.857Z,9.09
2023-02-17T15:40:58.797Z,9.13
2023-02-17T15:46:07.883Z,9.02
2023-02-17T15:48:39.176Z,9.00
2023-02-17T15:51:12.273Z,9.07
2023-02-17T15:53:43.017Z,9.15
2023-02-17T15:56:20.462Z,9.16
2023-02-17T15:58:51.598Z,9.13
2023-02-17T16:01:33.234Z,9.08
2023-02-17T16:04:03.365Z,9.14
2023-02-17T16:06:33.120Z,9.03
2023-02-17T16:09:02.925Z,9.03
2023-02-17T16:11:34.418Z,8.99
2023-02-17T16:14:04.466Z,9.10
2023-02-17T16:16:36.082Z,9.14
2023-02-17T16:19:06.741Z,9.14
2023-02-17T16:21:36.580Z,9.15
2023-02-17T16:24:07.014Z,9.06
2023-02-17T16:26:39.802Z,9.00
2023-02-17T16:29:21.195Z,9.00
2023-02-17T16:31:52.462Z,8.76
2023-02-17T16:34:22.585Z,8.88
2023-02-17T16:36:55.040Z,8.74
2023-02-17T16:39:25.031Z,8.80
2023-02-17T16:41:54.840Z,8.50
2023-02-17T16:44:24.616Z,8.62
2023-02-17T16:46:56.317Z,8.54
2023-02-17T16:49:30.630Z,8.40
2023-02-17T16:52:01.756Z,8.50
2023-02-17T16:54:30.590Z,8.74
2023-02-17T16:57:00.535Z,8.60
2023-02-17T16:59:30.053Z,8.44
2023-02-17T17:01:59.864Z,8.59
2023-02-17T17:04:29.617Z,8.72
2023-02-17T17:06:59.498Z,8.68
2023-02-17T17:09:30.613Z,8.69
2023-02-17T17:12:00.422Z,9.22
2023-02-17T17:14:30.189Z,9.61
2023-02-17T17:17:02.373Z,9.61
2023-02-17T17:19:32.150Z,10.21
2023-02-17T17:22:02.638Z,10.60
2023-02-17T17:24:32.419Z,11.06
2023-02-17T17:27:02.426Z,11.28
2023-02-17T17:29:32.490Z,11.35
2023-02-17T17:32:02.443Z,11.60
2023-02-17T17:34:32.242Z,11.57
2023-02-17T17:37:02.113Z,11.55
2023-02-17T17:39:31.866Z,11.67
2023-02-17T17:42:01.679Z,11.63
2023-02-17T17:44:31.610Z,11.71
2023-02-17T17:47:01.310Z,11.72
2023-02-17T17:49:31.389Z,11.75
2023-02-17T17:52:01.172Z,11.81
2023-02-17T17:54:31.117Z,11.87
2023-02-17T17:57:01.339Z,11.75
2023-02-17T17:59:31.129Z,11.81
2023-02-17T18:02:01.076Z,11.87
2023-02-17T18:04:30.910Z,11.94
2023-02-17T18:07:00.891Z,11.89
2023-02-17T18:09:33.788Z,11.93
2023-02-17T18:12:12.623Z,11.91
2023-02-17T18:14:44.216Z,11.99
2023-02-17T18:17:14.493Z,12.05
2023-02-17T18:19:43.921Z,12.02
2023-02-17T18:22:13.869Z,12.16
2023-02-17T18:24:45.149Z,12.04
2023-02-17T18:27:15.907Z,12.11
2023-02-17T18:29:45.919Z,12.12
2023-02-17T18:32:15.421Z,12.03
2023-02-17T18:34:45.196Z,12.13
2023-02-17T18:37:15.929Z,12.16
2023-02-17T18:39:45.794Z,12.13
2023-02-17T18:42:15.345Z,12.18
2023-02-17T18:44:45.541Z,12.16
2023-02-17T18:47:15.320Z,12.21
2023-02-17T18:49:46.698Z,12.22
2023-02-17T18:52:16.185Z,12.20
2023-02-17T18:54:46.766Z,12.22
2023-02-17T18:57:16.251Z,12.19
2023-02-17T18:59:46.230Z,12.22
2023-02-17T19:02:15.823Z,12.28
2023-02-17T19:04:46.141Z,12.29
2023-02-17T19:07:15.649Z,12.33
2023-02-17T19:09:45.493Z,12.36
2023-02-17T19:12:15.174Z,12.26
2023-02-17T19:14:45.504Z,12.35
2023-02-17T19:17:16.661Z,12.36
2023-02-17T19:19:46.450Z,12.27
2023-02-17T19:22:16.423Z,12.31
2023-02-17T19:24:46.466Z,12.19
2023-02-17T19:27:15.976Z,12.23
2023-02-17T19:29:45.831Z,12.15
2023-02-17T19:32:15.553Z,12.17
2023-02-17T19:34:45.330Z,12.14
2023-02-17T19:37:15.551Z,12.14
2023-02-17T19:39:45.709Z,12.09
2023-02-17T19:42:15.246Z,12.12
2023-02-17T19:44:45.155Z,12.01
2023-02-17T19:47:14.785Z,11.67
2023-02-17T19:49:44.670Z,11.53
2023-02-17T19:52:14.473Z,11.45
2023-02-17T19:54:44.224Z,11.31
2023-02-17T19:57:17.592Z,11.48
2023-02-17T19:59:47.497Z,11.42
2023-02-17T20:02:17.463Z,11.36
2023-02-17T20:04:47.242Z,11.31
2023-02-17T20:07:16.792Z,11.36
2023-02-17T20:09:46.574Z,11.35
2023-02-17T20:12:17.612Z,11.09
2023-02-17T20:14:47.402Z,10.98
2023-02-17T20:17:17.375Z,10.78
2023-02-17T20:19:47.514Z,10.72
2023-02-17T20:22:17.305Z,10.53
2023-02-17T20:24:47.084Z,10.51
2023-02-17T20:27:16.910Z,10.49
2023-02-17T20:29:46.680Z,10.54
2023-02-17T20:32:16.564Z,10.54
2023-02-17T20:34:46.395Z,10.54
2023-02-17T20:37:16.033Z,10.45
2023-02-17T20:39:45.859Z,10.59
2023-02-17T20:42:15.851Z,10.53
2023-02-17T20:44:45.850Z,10.50
2023-02-17T20:47:15.473Z,10.58
2023-02-17T20:49:45.226Z,10.62
2023-02-17T20:52:14.908Z,10.54
2023-02-17T20:54:45.124Z,10.60
2023-02-17T20:57:16.372Z,10.62
2023-02-17T20:59:46.235Z,10.62
2023-02-17T21:02:16.055Z,10.69
2023-02-17T21:04:46.821Z,10.51
2023-02-17T21:07:16.957Z,10.68
2023-02-17T21:09:46.937Z,10.54
2023-02-17T21:12:16.712Z,10.59
2023-02-17T21:14:47.510Z,10.45
2023-02-17T21:17:18.795Z,10.47
2023-02-17T21:19:48.792Z,10.33
2023-02-17T21:22:18.333Z,10.39
2023-02-17T21:24:48.153Z,10.24
2023-02-17T21:27:17.633Z,10.48
2023-02-17T21:29:47.643Z,10.30
2023-02-17T21:32:17.735Z,10.43
2023-02-17T21:34:47.655Z,10.42
2023-02-17T21:37:17.497Z,10.47
2023-02-17T21:39:47.407Z,10.48
2023-02-17T21:42:20.500Z,10.46
2023-02-17T21:44:53.368Z,10.59
2023-02-17T21:47:23.402Z,10.42
2023-02-17T21:49:55.271Z,10.41
2023-02-17T21:52:24.795Z,10.55
2023-02-17T21:54:54.733Z,10.55
2023-02-17T21:57:24.534Z,10.45
2023-02-17T21:59:54.405Z,10.50
2023-02-17T22:02:24.044Z,10.48
2023-02-17T22:04:57.625Z,10.30
2023-02-17T22:07:27.444Z,10.33
2023-02-17T22:09:57.319Z,10.15
2023-02-17T22:12:27.718Z,9.77
2023-02-17T22:14:57.559Z,9.39
2023-02-17T22:17:27.329Z,9.12
2023-02-17T22:19:58.768Z,8.93
2023-02-17T22:22:28.695Z,8.82
2023-02-17T22:24:58.603Z,8.69
2023-02-17T22:27:28.523Z,8.57
2023-02-17T22:29:58.731Z,8.64
2023-02-17T22:32:28.592Z,8.57
2023-02-17T22:34:58.575Z,8.51
2023-02-17T22:37:28.339Z,8.52
2023-02-17T22:39:58.605Z,8.63
2023-02-17T22:42:29.821Z,8.72
2023-02-17T22:44:59.628Z,8.53
2023-02-17T22:47:29.414Z,8.55
2023-02-17T22:49:59.217Z,8.62
2023-02-17T22:52:28.994Z,8.53
2023-02-17T22:54:58.935Z,8.66
2023-02-17T22:57:28.680Z,8.61
2023-02-17T22:59:58.492Z,8.70
2023-02-17T23:02:28.334Z,8.67
2023-02-17T23:04:58.218Z,8.67
2023-02-17T23:07:28.186Z,8.56
2023-02-17T23:09:57.940Z,8.54
2023-02-17T23:12:27.765Z,8.63
2023-02-17T23:14:57.572Z,8.60
2023-02-17T23:17:27.754Z,8.56
2023-02-17T23:19:57.497Z,8.56
2023-02-17T23:22:27.287Z,8.72
2023-02-17T23:24:57.070Z,8.61
2023-02-17T23:27:26.863Z,8.58
2023-02-17T23:29:56.690Z,8.60
2023-02-17T23:32:26.511Z,8.49
2023-02-17T23:34:56.551Z,8.35
2023-02-17T23:37:26.362Z,8.26
2023-02-17T23:39:56.141Z,8.27
2023-02-17T23:42:26.233Z,8.27
2023-02-17T23:44:56.010Z,8.21
2023-02-17T23:47:26.089Z,8.28
2023-02-17T23:49:55.872Z,8.37
2023-02-17T23:52:25.673Z,8.39
2023-02-17T23:54:55.435Z,8.41
2023-02-17T23:57:26.611Z,8.23
2023-02-17T23:59:56.132Z,8.33
